Terminal Aerodrome Forecast
Issued by NWS

Home | Current Version | Previous Version | Text Only | Print | Product List | Glossary On
Versions: 1 2 3 4 5 6 7 8 9 10 11 12 13 14 15 16 17
000
FTUS44 KBMX 292347 CCA
TAFANB
TAF COR
KANB 292347Z 3000/3024 VRB04KT P6SM OVC080
     FM300100 29015G33KT 2SM TSRA OVC035CB
     FM300300 02004KT 6SM SHRA BR VCTS OVC050CB
     FM300600 VRB03KT P6SM SCT080 OVC250
     FM301700 21008KT P6SM BKN250
     FM302000 20007KT P6SM VCSH SCT060 BKN250=

USA.gov is the U.S. government's official web portal to all federal, state and local government web resources and services.